sensor_id;sensor_type;location;lat;lon;timestamp;P1;durP1;ratioP1;P2;durP2;ratioP2
77359;SDS011;66426;51.454;7.266;2023-06-10T00:00:49;7.72;;;5.25;;
77359;SDS011;66426;51.454;7.266;2023-06-10T00:01:51;6.07;;;4.85;;
77359;SDS011;66426;51.454;7.266;2023-06-10T00:02:55;5.50;;;4.72;;
77359;SDS011;66426;51.454;7.266;2023-06-10T00:03:56;7.28;;;4.85;;
77359;SDS011;66426;51.454;7.266;2023-06-10T00:04:57;6.35;;;4.90;;
77359;SDS011;66426;51.454;7.266;2023-06-10T00:05:58;6.10;;;4.65;;
77359;SDS011;66426;51.454;7.266;2023-06-10T00:06:59;5.57;;;4.72;;
77359;SDS011;66426;51.454;7.266;2023-06-10T00:08:01;7.40;;;5.47;;
77359;SDS011;66426;51.454;7.266;2023-06-10T00:09:07;5.90;;;4.88;;
77359;SDS011;66426;51.454;7.266;2023-06-10T00:10:11;6.47;;;4.80;;
77359;SDS011;66426;51.454;7.266;2023-06-10T00:11:12;6.55;;;4.93;;
77359;SDS011;66426;51.454;7.266;2023-06-10T00:12:13;5.72;;;4.57;;
77359;SDS011;66426;51.454;7.266;2023-06-10T00:13:15;8.98;;;5.22;;
77359;SDS011;66426;51.454;7.266;2023-06-10T00:14:17;6.10;;;4.93;;
77359;SDS011;66426;51.454;7.266;2023-06-10T00:15:18;5.43;;;4.40;;
77359;SDS011;66426;51.454;7.266;2023-06-10T00:16:20;10.65;;;5.07;;
77359;SDS011;66426;51.454;7.266;2023-06-10T00:17:21;6.28;;;5.10;;
77359;SDS011;66426;51.454;7.266;2023-06-10T00:18:23;8.05;;;5.15;;
77359;SDS011;66426;51.454;7.266;2023-06-10T00:19:24;6.90;;;5.10;;
77359;SDS011;66426;51.454;7.266;2023-06-10T00:20:26;6.18;;;5.10;;
77359;SDS011;66426;51.454;7.266;2023-06-10T00:21:27;7.88;;;5.30;;
77359;SDS011;66426;51.454;7.266;2023-06-10T00:22:28;7.55;;;5.68;;
77359;SDS011;66426;51.454;7.266;2023-06-10T00:23:30;8.98;;;5.18;;
77359;SDS011;66426;51.454;7.266;2023-06-10T00:24:31;9.88;;;5.95;;
77359;SDS011;66426;51.454;7.266;2023-06-10T00:25:32;6.05;;;5.30;;
77359;SDS011;66426;51.454;7.266;2023-06-10T00:26:33;7.18;;;5.72;;
77359;SDS011;66426;51.454;7.266;2023-06-10T00:27:34;7.88;;;5.60;;
77359;SDS011;66426;51.454;7.266;2023-06-10T00:28:35;6.82;;;5.47;;
77359;SDS011;66426;51.454;7.266;2023-06-10T00:29:36;6.63;;;5.43;;
77359;SDS011;66426;51.454;7.266;2023-06-10T00:30:37;10.05;;;6.28;;
77359;SDS011;66426;51.454;7.266;2023-06-10T00:31:39;7.30;;;5.97;;
77359;SDS011;66426;51.454;7.266;2023-06-10T00:32:40;7.30;;;5.50;;
77359;SDS011;66426;51.454;7.266;2023-06-10T00:33:41;7.70;;;6.18;;
77359;SDS011;66426;51.454;7.266;2023-06-10T00:34:42;7.88;;;5.95;;
77359;SDS011;66426;51.454;7.266;2023-06-10T00:35:43;8.48;;;5.95;;
77359;SDS011;66426;51.454;7.266;2023-06-10T00:36:44;7.82;;;6.10;;
77359;SDS011;66426;51.454;7.266;2023-06-10T00:37:45;6.88;;;5.28;;
77359;SDS011;66426;51.454;7.266;2023-06-10T00:38:46;8.02;;;5.90;;
77359;SDS011;66426;51.454;7.266;2023-06-10T00:39:47;8.07;;;6.03;;
77359;SDS011;66426;51.454;7.266;2023-06-10T00:40:48;8.50;;;6.13;;
77359;SDS011;66426;51.454;7.266;2023-06-10T00:41:49;11.70;;;6.43;;
77359;SDS011;66426;51.454;7.266;2023-06-10T00:42:50;8.80;;;5.97;;
77359;SDS011;66426;51.454;7.266;2023-06-10T00:43:51;7.95;;;5.90;;
77359;SDS011;66426;51.454;7.266;2023-06-10T00:44:53;9.18;;;6.07;;
77359;SDS011;66426;51.454;7.266;2023-06-10T00:45:54;9.23;;;6.43;;
77359;SDS011;66426;51.454;7.266;2023-06-10T00:46:57;7.72;;;5.90;;
77359;SDS011;66426;51.454;7.266;2023-06-10T00:47:58;8.02;;;6.10;;
77359;SDS011;66426;51.454;7.266;2023-06-10T00:49:00;9.27;;;6.30;;
77359;SDS011;66426;51.454;7.266;2023-06-10T00:50:01;8.32;;;6.13;;
77359;SDS011;66426;51.454;7.266;2023-06-10T00:51:03;7.95;;;6.15;;
77359;SDS011;66426;51.454;7.266;2023-06-10T00:52:06;9.68;;;6.43;;
77359;SDS011;66426;51.454;7.266;2023-06-10T00:53:08;9.23;;;6.20;;
77359;SDS011;66426;51.454;7.266;2023-06-10T00:54:10;7.95;;;6.03;;
77359;SDS011;66426;51.454;7.266;2023-06-10T00:55:14;8.75;;;6.35;;
77359;SDS011;66426;51.454;7.266;2023-06-10T00:56:17;8.50;;;6.35;;
77359;SDS011;66426;51.454;7.266;2023-06-10T00:57:18;8.27;;;6.15;;
77359;SDS011;66426;51.454;7.266;2023-06-10T00:58:19;9.25;;;6.20;;
77359;SDS011;66426;51.454;7.266;2023-06-10T00:59:20;9.00;;;6.35;;
77359;SDS011;66426;51.454;7.266;2023-06-10T01:00:21;9.27;;;6.57;;
77359;SDS011;66426;51.454;7.266;2023-06-10T01:01:22;9.93;;;6.60;;
77359;SDS011;66426;51.454;7.266;2023-06-10T01:02:25;7.28;;;6.13;;
77359;SDS011;66426;51.454;7.266;2023-06-10T01:03:27;7.72;;;6.38;;
77359;SDS011;66426;51.454;7.266;2023-06-10T01:04:28;8.45;;;6.38;;
77359;SDS011;66426;51.454;7.266;2023-06-10T01:05:29;9.73;;;6.40;;
77359;SDS011;66426;51.454;7.266;2023-06-10T01:06:32;10.15;;;6.47;;
77359;SDS011;66426;51.454;7.266;2023-06-10T01:07:49;8.50;;;6.20;;
77359;SDS011;66426;51.454;7.266;2023-06-10T01:08:59;10.05;;;6.18;;
77359;SDS011;66426;51.454;7.266;2023-06-10T01:10:09;10.68;;;6.40;;
77359;SDS011;66426;51.454;7.266;2023-06-10T01:11:17;7.28;;;5.55;;
77359;SDS011;66426;51.454;7.266;2023-06-10T01:12:25;8.65;;;5.97;;
77359;SDS011;66426;51.454;7.266;2023-06-10T01:13:31;9.95;;;6.38;;
77359;SDS011;66426;51.454;7.266;2023-06-10T01:14:35;9.93;;;7.13;;
77359;SDS011;66426;51.454;7.266;2023-06-10T01:15:36;7.45;;;5.90;;
77359;SDS011;66426;51.454;7.266;2023-06-10T01:16:37;9.48;;;6.25;;
77359;SDS011;66426;51.454;7.266;2023-06-10T01:17:54;11.52;;;6.32;;
77359;SDS011;66426;51.454;7.266;2023-06-10T01:18:57;9.32;;;6.35;;
77359;SDS011;66426;51.454;7.266;2023-06-10T01:19:58;9.15;;;6.15;;
77359;SDS011;66426;51.454;7.266;2023-06-10T01:20:59;9.13;;;6.10;;
77359;SDS011;66426;51.454;7.266;2023-06-10T01:22:02;10.07;;;6.32;;
77359;SDS011;66426;51.454;7.266;2023-06-10T01:23:03;11.05;;;6.70;;
77359;SDS011;66426;51.454;7.266;2023-06-10T01:24:05;8.75;;;6.35;;
77359;SDS011;66426;51.454;7.266;2023-06-10T01:25:08;10.05;;;6.63;;
77359;SDS011;66426;51.454;7.266;2023-06-10T01:26:10;9.77;;;6.65;;
77359;SDS011;66426;51.454;7.266;2023-06-10T01:27:13;9.23;;;6.22;;
77359;SDS011;66426;51.454;7.266;2023-06-10T01:28:17;9.85;;;6.32;;
77359;SDS011;66426;51.454;7.266;2023-06-10T01:29:24;10.15;;;6.35;;
77359;SDS011;66426;51.454;7.266;2023-06-10T01:30:35;14.48;;;6.80;;
77359;SDS011;66426;51.454;7.266;2023-06-10T01:31:41;10.68;;;5.93;;
77359;SDS011;66426;51.454;7.266;2023-06-10T01:32:48;9.55;;;6.65;;
77359;SDS011;66426;51.454;7.266;2023-06-10T01:33:52;10.93;;;6.70;;
77359;SDS011;66426;51.454;7.266;2023-06-10T01:34:54;17.55;;;7.68;;
77359;SDS011;66426;51.454;7.266;2023-06-10T01:35:56;8.52;;;6.22;;
77359;SDS011;66426;51.454;7.266;2023-06-10T01:37:04;8.35;;;6.35;;
77359;SDS011;66426;51.454;7.266;2023-06-10T01:38:05;9.02;;;6.68;;
77359;SDS011;66426;51.454;7.266;2023-06-10T01:39:08;9.32;;;6.68;;
77359;SDS011;66426;51.454;7.266;2023-06-10T01:40:11;9.07;;;6.40;;
77359;SDS011;66426;51.454;7.266;2023-06-10T01:41:15;9.60;;;6.57;;
77359;SDS011;66426;51.454;7.266;2023-06-10T01:42:17;10.38;;;7.25;;
77359;SDS011;66426;51.454;7.266;2023-06-10T01:43:19;9.65;;;6.25;;
77359;SDS011;66426;51.454;7.266;2023-06-10T01:44:20;8.30;;;6.30;;
77359;SDS011;66426;51.454;7.266;2023-06-10T01:45:22;9.68;;;6.85;;
77359;SDS011;66426;51.454;7.266;2023-06-10T01:46:23;9.68;;;6.88;;
77359;SDS011;66426;51.454;7.266;2023-06-10T01:47:24;9.48;;;6.35;;
77359;SDS011;66426;51.454;7.266;2023-06-10T01:48:26;10.70;;;7.00;;
77359;SDS011;66426;51.454;7.266;2023-06-10T01:49:27;7.85;;;6.30;;
77359;SDS011;66426;51.454;7.266;2023-06-10T01:50:29;8.73;;;6.55;;
77359;SDS011;66426;51.454;7.266;2023-06-10T01:51:30;9.05;;;6.20;;
77359;SDS011;66426;51.454;7.266;2023-06-10T01:52:33;11.80;;;7.35;;
77359;SDS011;66426;51.454;7.266;2023-06-10T01:53:34;10.52;;;6.47;;
77359;SDS011;66426;51.454;7.266;2023-06-10T01:54:35;9.30;;;6.47;;
77359;SDS011;66426;51.454;7.266;2023-06-10T01:55:36;11.25;;;6.43;;
77359;SDS011;66426;51.454;7.266;2023-06-10T01:56:37;10.82;;;6.50;;
77359;SDS011;66426;51.454;7.266;2023-06-10T01:57:38;9.57;;;6.65;;
77359;SDS011;66426;51.454;7.266;2023-06-10T01:58:39;9.27;;;6.68;;
77359;SDS011;66426;51.454;7.266;2023-06-10T01:59:40;8.95;;;6.55;;
77359;SDS011;66426;51.454;7.266;2023-06-10T02:00:42;10.25;;;6.85;;
77359;SDS011;66426;51.454;7.266;2023-06-10T02:01:43;9.18;;;6.25;;
77359;SDS011;66426;51.454;7.266;2023-06-10T02:02:44;10.02;;;7.10;;
77359;SDS011;66426;51.454;7.266;2023-06-10T02:03:45;9.38;;;6.38;;
77359;SDS011;66426;51.454;7.266;2023-06-10T02:04:46;10.70;;;7.28;;
77359;SDS011;66426;51.454;7.266;2023-06-10T02:05:47;10.05;;;6.07;;
77359;SDS011;66426;51.454;7.266;2023-06-10T02:06:48;12.00;;;6.40;;
77359;SDS011;66426;51.454;7.266;2023-06-10T02:07:50;9.20;;;6.10;;
77359;SDS011;66426;51.454;7.266;2023-06-10T02:08:51;8.45;;;6.50;;
77359;SDS011;66426;51.454;7.266;2023-06-10T02:09:52;10.52;;;6.90;;
77359;SDS011;66426;51.454;7.266;2023-06-10T02:10:53;8.73;;;6.13;;
77359;SDS011;66426;51.454;7.266;2023-06-10T02:11:54;9.60;;;6.15;;
77359;SDS011;66426;51.454;7.266;2023-06-10T02:12:55;8.90;;;6.60;;
77359;SDS011;66426;51.454;7.266;2023-06-10T02:13:56;9.35;;;6.30;;
77359;SDS011;66426;51.454;7.266;2023-06-10T02:14:57;7.88;;;5.90;;
77359;SDS011;66426;51.454;7.266;2023-06-10T02:15:58;9.38;;;6.65;;
77359;SDS011;66426;51.454;7.266;2023-06-10T02:16:59;11.35;;;7.00;;
77359;SDS011;66426;51.454;7.266;2023-06-10T02:18:00;7.93;;;6.18;;
77359;SDS011;66426;51.454;7.266;2023-06-10T02:19:01;11.00;;;6.82;;
77359;SDS011;66426;51.454;7.266;2023-06-10T02:20:04;9.20;;;6.10;;
77359;SDS011;66426;51.454;7.266;2023-06-10T02:21:07;8.82;;;6.38;;
77359;SDS011;66426;51.454;7.266;2023-06-10T02:22:08;8.45;;;6.15;;
77359;SDS011;66426;51.454;7.266;2023-06-10T02:23:11;9.55;;;6.55;;
77359;SDS011;66426;51.454;7.266;2023-06-10T02:24:12;8.93;;;6.72;;
77359;SDS011;66426;51.454;7.266;2023-06-10T02:25:12;9.25;;;6.72;;
77359;SDS011;66426;51.454;7.266;2023-06-10T02:26:13;10.90;;;6.45;;
77359;SDS011;66426;51.454;7.266;2023-06-10T02:27:15;10.48;;;6.72;;
77359;SDS011;66426;51.454;7.266;2023-06-10T02:28:17;9.55;;;7.28;;
77359;SDS011;66426;51.454;7.266;2023-06-10T02:29:18;9.77;;;6.57;;
77359;SDS011;66426;51.454;7.266;2023-06-10T02:30:19;12.18;;;7.30;;
77359;SDS011;66426;51.454;7.266;2023-06-10T02:31:20;10.88;;;6.75;;
77359;SDS011;66426;51.454;7.266;2023-06-10T02:32:20;10.30;;;6.57;;
77359;SDS011;66426;51.454;7.266;2023-06-10T02:33:21;10.15;;;7.30;;
77359;SDS011;66426;51.454;7.266;2023-06-10T02:34:23;9.70;;;7.03;;
77359;SDS011;66426;51.454;7.266;2023-06-10T02:35:24;12.38;;;7.28;;
77359;SDS011;66426;51.454;7.266;2023-06-10T02:36:25;7.95;;;6.60;;
77359;SDS011;66426;51.454;7.266;2023-06-10T02:37:28;9.50;;;6.80;;
77359;SDS011;66426;51.454;7.266;2023-06-10T02:38:30;11.77;;;6.72;;
77359;SDS011;66426;51.454;7.266;2023-06-10T02:39:31;12.88;;;7.43;;
77359;SDS011;66426;51.454;7.266;2023-06-10T02:40:32;11.88;;;6.93;;
77359;SDS011;66426;51.454;7.266;2023-06-10T02:41:33;9.15;;;6.93;;
77359;SDS011;66426;51.454;7.266;2023-06-10T02:42:34;10.27;;;6.82;;
77359;SDS011;66426;51.454;7.266;2023-06-10T02:43:36;9.65;;;6.90;;
77359;SDS011;66426;51.454;7.266;2023-06-10T02:44:37;11.15;;;7.47;;
77359;SDS011;66426;51.454;7.266;2023-06-10T02:45:38;12.23;;;7.25;;
77359;SDS011;66426;51.454;7.266;2023-06-10T02:46:40;12.55;;;7.15;;
77359;SDS011;66426;51.454;7.266;2023-06-10T02:47:41;9.93;;;7.13;;
77359;SDS011;66426;51.454;7.266;2023-06-10T02:48:42;10.75;;;7.55;;
77359;SDS011;66426;51.454;7.266;2023-06-10T02:49:46;12.10;;;7.25;;
77359;SDS011;66426;51.454;7.266;2023-06-10T02:50:47;13.93;;;7.75;;
77359;SDS011;66426;51.454;7.266;2023-06-10T02:51:49;13.70;;;7.35;;
77359;SDS011;66426;51.454;7.266;2023-06-10T02:52:54;11.27;;;7.82;;
77359;SDS011;66426;51.454;7.266;2023-06-10T02:53:56;10.93;;;7.60;;
77359;SDS011;66426;51.454;7.266;2023-06-10T02:54:57;12.98;;;7.85;;
77359;SDS011;66426;51.454;7.266;2023-06-10T02:55:58;9.98;;;7.68;;
77359;SDS011;66426;51.454;7.266;2023-06-10T02:57:00;11.75;;;7.32;;
77359;SDS011;66426;51.454;7.266;2023-06-10T02:58:01;9.75;;;7.18;;
77359;SDS011;66426;51.454;7.266;2023-06-10T02:59:06;12.90;;;8.20;;
77359;SDS011;66426;51.454;7.266;2023-06-10T03:00:26;12.73;;;7.30;;
77359;SDS011;66426;51.454;7.266;2023-06-10T03:01:27;9.73;;;7.35;;
77359;SDS011;66426;51.454;7.266;2023-06-10T03:02:28;10.63;;;7.50;;
77359;SDS011;66426;51.454;7.266;2023-06-10T03:03:30;9.55;;;7.55;;
77359;SDS011;66426;51.454;7.266;2023-06-10T03:04:31;8.55;;;7.32;;
77359;SDS011;66426;51.454;7.266;2023-06-10T03:05:32;11.70;;;7.55;;
77359;SDS011;66426;51.454;7.266;2023-06-10T03:06:33;10.52;;;7.85;;
77359;SDS011;66426;51.454;7.266;2023-06-10T03:07:34;10.48;;;7.65;;
77359;SDS011;66426;51.454;7.266;2023-06-10T03:08:35;11.45;;;6.93;;
77359;SDS011;66426;51.454;7.266;2023-06-10T03:09:38;10.98;;;7.20;;
77359;SDS011;66426;51.454;7.266;2023-06-10T03:10:38;12.52;;;7.50;;
77359;SDS011;66426;51.454;7.266;2023-06-10T03:11:39;9.20;;;7.63;;
77359;SDS011;66426;51.454;7.266;2023-06-10T03:12:40;10.80;;;7.80;;
77359;SDS011;66426;51.454;7.266;2023-06-10T03:13:41;10.45;;;7.30;;
77359;SDS011;66426;51.454;7.266;2023-06-10T03:14:42;11.50;;;7.57;;
77359;SDS011;66426;51.454;7.266;2023-06-10T03:15:43;9.68;;;7.05;;
77359;SDS011;66426;51.454;7.266;2023-06-10T03:16:45;10.05;;;7.75;;
77359;SDS011;66426;51.454;7.266;2023-06-10T03:17:46;13.02;;;8.20;;
77359;SDS011;66426;51.454;7.266;2023-06-10T03:18:47;11.48;;;7.38;;
77359;SDS011;66426;51.454;7.266;2023-06-10T03:19:49;11.60;;;7.95;;
77359;SDS011;66426;51.454;7.266;2023-06-10T03:20:50;10.65;;;7.47;;
77359;SDS011;66426;51.454;7.266;2023-06-10T03:21:58;11.63;;;8.32;;
77359;SDS011;66426;51.454;7.266;2023-06-10T03:23:08;10.27;;;7.88;;
77359;SDS011;66426;51.454;7.266;2023-06-10T03:24:10;12.38;;;8.02;;
77359;SDS011;66426;51.454;7.266;2023-06-10T03:25:12;10.20;;;7.68;;
77359;SDS011;66426;51.454;7.266;2023-06-10T03:26:15;9.57;;;7.15;;
77359;SDS011;66426;51.454;7.266;2023-06-10T03:27:16;14.30;;;7.75;;
77359;SDS011;66426;51.454;7.266;2023-06-10T03:28:17;9.98;;;7.78;;
77359;SDS011;66426;51.454;7.266;2023-06-10T03:29:18;11.70;;;7.97;;
77359;SDS011;66426;51.454;7.266;2023-06-10T03:30:19;11.60;;;7.43;;
77359;SDS011;66426;51.454;7.266;2023-06-10T03:31:20;11.68;;;7.53;;
77359;SDS011;66426;51.454;7.266;2023-06-10T03:32:21;9.05;;;7.30;;
77359;SDS011;66426;51.454;7.266;2023-06-10T03:33:22;10.88;;;7.93;;
77359;SDS011;66426;51.454;7.266;2023-06-10T03:34:23;10.40;;;7.03;;
77359;SDS011;66426;51.454;7.266;2023-06-10T03:35:24;11.07;;;7.88;;
77359;SDS011;66426;51.454;7.266;2023-06-10T03:36:25;13.05;;;7.60;;
77359;SDS011;66426;51.454;7.266;2023-06-10T03:37:29;10.70;;;8.27;;
77359;SDS011;66426;51.454;7.266;2023-06-10T03:38:30;11.27;;;8.38;;
77359;SDS011;66426;51.454;7.266;2023-06-10T03:39:31;12.82;;;8.30;;
77359;SDS011;66426;51.454;7.266;2023-06-10T03:40:33;10.75;;;7.47;;
77359;SDS011;66426;51.454;7.266;2023-06-10T03:41:34;10.80;;;7.70;;
77359;SDS011;66426;51.454;7.266;2023-06-10T03:42:35;11.35;;;7.82;;
77359;SDS011;66426;51.454;7.266;2023-06-10T03:43:37;10.50;;;8.20;;
77359;SDS011;66426;51.454;7.266;2023-06-10T03:44:39;10.50;;;7.53;;
77359;SDS011;66426;51.454;7.266;2023-06-10T03:45:40;11.35;;;7.47;;
77359;SDS011;66426;51.454;7.266;2023-06-10T03:46:42;12.02;;;7.63;;
77359;SDS011;66426;51.454;7.266;2023-06-10T03:47:43;12.10;;;7.70;;
77359;SDS011;66426;51.454;7.266;2023-06-10T03:48:44;15.75;;;8.75;;
77359;SDS011;66426;51.454;7.266;2023-06-10T03:49:45;9.45;;;7.55;;
77359;SDS011;66426;51.454;7.266;2023-06-10T03:50:46;11.10;;;8.07;;
77359;SDS011;66426;51.454;7.266;2023-06-10T03:51:48;13.38;;;8.23;;
77359;SDS011;66426;51.454;7.266;2023-06-10T03:52:49;12.13;;;8.40;;
77359;SDS011;66426;51.454;7.266;2023-06-10T03:53:50;11.80;;;8.95;;
77359;SDS011;66426;51.454;7.266;2023-06-10T03:54:51;11.70;;;8.48;;
77359;SDS011;66426;51.454;7.266;2023-06-10T03:55:53;11.65;;;8.00;;
77359;SDS011;66426;51.454;7.266;2023-06-10T03:56:54;13.27;;;8.25;;
77359;SDS011;66426;51.454;7.266;2023-06-10T03:57:55;13.32;;;8.70;;
77359;SDS011;66426;51.454;7.266;2023-06-10T03:58:56;12.40;;;8.65;;
77359;SDS011;66426;51.454;7.266;2023-06-10T03:59:57;12.52;;;8.00;;
77359;SDS011;66426;51.454;7.266;2023-06-10T04:00:58;14.65;;;9.13;;
77359;SDS011;66426;51.454;7.266;2023-06-10T04:01:59;12.48;;;8.95;;
77359;SDS011;66426;51.454;7.266;2023-06-10T04:03:01;13.43;;;8.52;;
77359;SDS011;66426;51.454;7.266;2023-06-10T04:04:03;11.20;;;8.40;;
77359;SDS011;66426;51.454;7.266;2023-06-10T04:05:04;12.68;;;8.50;;
77359;SDS011;66426;51.454;7.266;2023-06-10T04:06:05;12.85;;;8.00;;
77359;SDS011;66426;51.454;7.266;2023-06-10T04:07:06;13.18;;;8.88;;
77359;SDS011;66426;51.454;7.266;2023-06-10T04:08:08;11.73;;;8.35;;
77359;SDS011;66426;51.454;7.266;2023-06-10T04:09:11;12.68;;;9.55;;
77359;SDS011;66426;51.454;7.266;2023-06-10T04:10:13;12.10;;;8.38;;
77359;SDS011;66426;51.454;7.266;2023-06-10T04:11:15;11.57;;;8.95;;
77359;SDS011;66426;51.454;7.266;2023-06-10T04:12:16;13.55;;;9.43;;
77359;SDS011;66426;51.454;7.266;2023-06-10T04:13:17;12.63;;;9.10;;
77359;SDS011;66426;51.454;7.266;2023-06-10T04:14:20;14.02;;;9.02;;
77359;SDS011;66426;51.454;7.266;2023-06-10T04:15:21;11.40;;;8.40;;
77359;SDS011;66426;51.454;7.266;2023-06-10T04:16:22;11.82;;;8.80;;
77359;SDS011;66426;51.454;7.266;2023-06-10T04:17:23;12.00;;;8.82;;
77359;SDS011;66426;51.454;7.266;2023-06-10T04:18:24;12.90;;;8.82;;
77359;SDS011;66426;51.454;7.266;2023-06-10T04:19:25;12.30;;;8.98;;
77359;SDS011;66426;51.454;7.266;2023-06-10T04:20:26;13.77;;;9.68;;
77359;SDS011;66426;51.454;7.266;2023-06-10T04:21:27;11.07;;;8.43;;
77359;SDS011;66426;51.454;7.266;2023-06-10T04:22:28;13.30;;;9.23;;
77359;SDS011;66426;51.454;7.266;2023-06-10T04:23:29;12.15;;;9.20;;
77359;SDS011;66426;51.454;7.266;2023-06-10T04:24:30;10.70;;;8.45;;
77359;SDS011;66426;51.454;7.266;2023-06-10T04:25:31;14.07;;;9.00;;
77359;SDS011;66426;51.454;7.266;2023-06-10T04:26:33;12.50;;;9.10;;
77359;SDS011;66426;51.454;7.266;2023-06-10T04:27:35;11.52;;;8.68;;
77359;SDS011;66426;51.454;7.266;2023-06-10T04:28:38;14.77;;;9.45;;
77359;SDS011;66426;51.454;7.266;2023-06-10T04:29:39;13.23;;;9.20;;
77359;SDS011;66426;51.454;7.266;2023-06-10T04:30:41;11.25;;;8.57;;
77359;SDS011;66426;51.454;7.266;2023-06-10T04:31:42;12.43;;;8.82;;
77359;SDS011;66426;51.454;7.266;2023-06-10T04:32:43;11.23;;;8.93;;
77359;SDS011;66426;51.454;7.266;2023-06-10T04:33:44;14.80;;;8.77;;
77359;SDS011;66426;51.454;7.266;2023-06-10T04:34:45;11.77;;;8.82;;
77359;SDS011;66426;51.454;7.266;2023-06-10T04:35:46;12.50;;;8.38;;
77359;SDS011;66426;51.454;7.266;2023-06-10T04:36:48;12.88;;;8.73;;
77359;SDS011;66426;51.454;7.266;2023-06-10T04:37:49;16.20;;;9.75;;
77359;SDS011;66426;51.454;7.266;2023-06-10T04:38:49;12.38;;;9.05;;
77359;SDS011;66426;51.454;7.266;2023-06-10T04:39:52;11.85;;;8.75;;
77359;SDS011;66426;51.454;7.266;2023-06-10T04:40:53;9.98;;;7.95;;
77359;SDS011;66426;51.454;7.266;2023-06-10T04:41:55;10.45;;;8.48;;
77359;SDS011;66426;51.454;7.266;2023-06-10T04:42:56;13.52;;;9.18;;
77359;SDS011;66426;51.454;7.266;2023-06-10T04:43:57;13.57;;;9.30;;
77359;SDS011;66426;51.454;7.266;2023-06-10T04:44:58;11.68;;;8.73;;
77359;SDS011;66426;51.454;7.266;2023-06-10T04:45:59;13.27;;;8.98;;
77359;SDS011;66426;51.454;7.266;2023-06-10T04:47:01;12.05;;;8.52;;
77359;SDS011;66426;51.454;7.266;2023-06-10T04:48:02;11.63;;;8.20;;
77359;SDS011;66426;51.454;7.266;2023-06-10T04:49:03;15.02;;;9.32;;
77359;SDS011;66426;51.454;7.266;2023-06-10T04:50:05;11.65;;;8.05;;
77359;SDS011;66426;51.454;7.266;2023-06-10T04:51:07;12.65;;;8.88;;
77359;SDS011;66426;51.454;7.266;2023-06-10T04:52:08;12.23;;;8.32;;
77359;SDS011;66426;51.454;7.266;2023-06-10T04:53:09;11.45;;;8.40;;
77359;SDS011;66426;51.454;7.266;2023-06-10T04:54:10;12.00;;;8.35;;
77359;SDS011;66426;51.454;7.266;2023-06-10T04:55:11;14.25;;;8.25;;
77359;SDS011;66426;51.454;7.266;2023-06-10T04:56:12;12.32;;;8.23;;
77359;SDS011;66426;51.454;7.266;2023-06-10T04:57:14;12.90;;;7.57;;
77359;SDS011;66426;51.454;7.266;2023-06-10T04:58:15;11.57;;;8.77;;
77359;SDS011;66426;51.454;7.266;2023-06-10T04:59:16;13.63;;;8.07;;
77359;SDS011;66426;51.454;7.266;2023-06-10T05:00:17;11.27;;;7.93;;
77359;SDS011;66426;51.454;7.266;2023-06-10T05:01:18;11.15;;;8.18;;
77359;SDS011;66426;51.454;7.266;2023-06-10T05:02:19;11.02;;;7.55;;
77359;SDS011;66426;51.454;7.266;2023-06-10T05:03:20;10.70;;;7.20;;
77359;SDS011;66426;51.454;7.266;2023-06-10T05:04:21;11.65;;;8.43;;
77359;SDS011;66426;51.454;7.266;2023-06-10T05:05:22;12.75;;;8.23;;
77359;SDS011;66426;51.454;7.266;2023-06-10T05:06:23;10.13;;;7.50;;
77359;SDS011;66426;51.454;7.266;2023-06-10T05:07:24;11.10;;;7.65;;
77359;SDS011;66426;51.454;7.266;2023-06-10T05:08:25;11.82;;;7.75;;
77359;SDS011;66426;51.454;7.266;2023-06-10T05:09:26;13.30;;;8.27;;
77359;SDS011;66426;51.454;7.266;2023-06-10T05:10:27;11.15;;;7.70;;
77359;SDS011;66426;51.454;7.266;2023-06-10T05:11:31;11.95;;;7.88;;
77359;SDS011;66426;51.454;7.266;2023-06-10T05:12:34;10.80;;;6.85;;
77359;SDS011;66426;51.454;7.266;2023-06-10T05:13:35;9.85;;;7.15;;
77359;SDS011;66426;51.454;7.266;2023-06-10T05:14:36;10.00;;;7.35;;
77359;SDS011;66426;51.454;7.266;2023-06-10T05:15:37;9.85;;;6.75;;
77359;SDS011;66426;51.454;7.266;2023-06-10T05:16:38;14.27;;;6.88;;
77359;SDS011;66426;51.454;7.266;2023-06-10T05:17:39;11.48;;;7.13;;
77359;SDS011;66426;51.454;7.266;2023-06-10T05:18:40;11.45;;;6.68;;
77359;SDS011;66426;51.454;7.266;2023-06-10T05:19:41;9.13;;;6.50;;
77359;SDS011;66426;51.454;7.266;2023-06-10T05:20:43;8.85;;;6.32;;
77359;SDS011;66426;51.454;7.266;2023-06-10T05:21:45;12.82;;;7.45;;
77359;SDS011;66426;51.454;7.266;2023-06-10T05:22:46;9.90;;;7.07;;
77359;SDS011;66426;51.454;7.266;2023-06-10T05:23:47;9.02;;;6.45;;
77359;SDS011;66426;51.454;7.266;2023-06-10T05:24:48;10.60;;;6.45;;
77359;SDS011;66426;51.454;7.266;2023-06-10T05:25:49;10.70;;;6.95;;
77359;SDS011;66426;51.454;7.266;2023-06-10T05:26:50;8.40;;;6.70;;
77359;SDS011;66426;51.454;7.266;2023-06-10T05:27:52;9.32;;;6.35;;
77359;SDS011;66426;51.454;7.266;2023-06-10T05:28:53;10.70;;;6.78;;
77359;SDS011;66426;51.454;7.266;2023-06-10T05:29:54;9.18;;;6.15;;
77359;SDS011;66426;51.454;7.266;2023-06-10T05:30:55;9.35;;;6.53;;
77359;SDS011;66426;51.454;7.266;2023-06-10T05:31:56;8.00;;;6.10;;
77359;SDS011;66426;51.454;7.266;2023-06-10T05:33:00;8.27;;;5.97;;
77359;SDS011;66426;51.454;7.266;2023-06-10T05:34:01;9.05;;;6.40;;
77359;SDS011;66426;51.454;7.266;2023-06-10T05:35:02;10.32;;;5.95;;
77359;SDS011;66426;51.454;7.266;2023-06-10T05:36:05;9.68;;;6.22;;
77359;SDS011;66426;51.454;7.266;2023-06-10T05:37:06;9.68;;;6.47;;
77359;SDS011;66426;51.454;7.266;2023-06-10T05:38:07;12.05;;;6.55;;
77359;SDS011;66426;51.454;7.266;2023-06-10T05:39:08;10.85;;;6.00;;
77359;SDS011;66426;51.454;7.266;2023-06-10T05:40:10;10.13;;;6.00;;
77359;SDS011;66426;51.454;7.266;2023-06-10T05:41:11;9.65;;;6.45;;
77359;SDS011;66426;51.454;7.266;2023-06-10T05:42:13;8.38;;;6.03;;
77359;SDS011;66426;51.454;7.266;2023-06-10T05:43:15;9.50;;;6.43;;
77359;SDS011;66426;51.454;7.266;2023-06-10T05:44:17;8.45;;;6.32;;
77359;SDS011;66426;51.454;7.266;2023-06-10T05:45:18;13.60;;;5.95;;
77359;SDS011;66426;51.454;7.266;2023-06-10T05:46:19;11.07;;;5.97;;
77359;SDS011;66426;51.454;7.266;2023-06-10T05:47:20;8.15;;;6.18;;
77359;SDS011;66426;51.454;7.266;2023-06-10T05:48:21;7.80;;;5.90;;
77359;SDS011;66426;51.454;7.266;2023-06-10T05:49:22;9.50;;;6.03;;
77359;SDS011;66426;51.454;7.266;2023-06-10T05:50:23;9.90;;;6.32;;
77359;SDS011;66426;51.454;7.266;2023-06-10T05:51:25;10.23;;;6.13;;
77359;SDS011;66426;51.454;7.266;2023-06-10T05:52:26;8.75;;;6.20;;
77359;SDS011;66426;51.454;7.266;2023-06-10T05:53:27;9.60;;;5.80;;
77359;SDS011;66426;51.454;7.266;2023-06-10T05:54:28;11.85;;;6.57;;
77359;SDS011;66426;51.454;7.266;2023-06-10T05:55:29;9.27;;;6.35;;
77359;SDS011;66426;51.454;7.266;2023-06-10T05:56:30;8.40;;;5.78;;
77359;SDS011;66426;51.454;7.266;2023-06-10T05:57:31;7.25;;;5.60;;
77359;SDS011;66426;51.454;7.266;2023-06-10T05:58:33;9.60;;;5.75;;
77359;SDS011;66426;51.454;7.266;2023-06-10T05:59:34;8.18;;;6.22;;
77359;SDS011;66426;51.454;7.266;2023-06-10T06:00:35;8.65;;;5.47;;
77359;SDS011;66426;51.454;7.266;2023-06-10T06:01:36;7.82;;;5.80;;
77359;SDS011;66426;51.454;7.266;2023-06-10T06:02:37;9.07;;;5.30;;
77359;SDS011;66426;51.454;7.266;2023-06-10T06:03:38;8.63;;;5.47;;
77359;SDS011;66426;51.454;7.266;2023-06-10T06:04:39;12.60;;;5.13;;
77359;SDS011;66426;51.454;7.266;2023-06-10T06:05:40;10.38;;;6.03;;
77359;SDS011;66426;51.454;7.266;2023-06-10T06:06:41;8.38;;;5.22;;
77359;SDS011;66426;51.454;7.266;2023-06-10T06:07:42;8.93;;;5.80;;
77359;SDS011;66426;51.454;7.266;2023-06-10T06:08:43;9.32;;;5.20;;
77359;SDS011;66426;51.454;7.266;2023-06-10T06:09:43;7.30;;;4.90;;